sensor_id;sensor_type;location;lat;lon;timestamp;temperature;humidity
6865;DHT22;3471;49.678;8.388;2023-06-10T00:02:21;22.00;99.90
6865;DHT22;3471;49.678;8.388;2023-06-10T00:04:47;21.80;99.90
6865;DHT22;3471;49.678;8.388;2023-06-10T00:07:13;21.80;99.90
6865;DHT22;3471;49.678;8.388;2023-06-10T00:09:38;21.70;99.90
6865;DHT22;3471;49.678;8.388;2023-06-10T00:12:06;21.60;99.90
6865;DHT22;3471;49.678;8.388;2023-06-10T00:14:32;21.60;99.90
6865;DHT22;3471;49.678;8.388;2023-06-10T00:16:58;21.60;99.90
6865;DHT22;3471;49.678;8.388;2023-06-10T00:19:24;21.50;99.90
6865;DHT22;3471;49.678;8.388;2023-06-10T00:21:51;21.50;99.90
6865;DHT22;3471;49.678;8.388;2023-06-10T00:24:18;21.50;99.90
6865;DHT22;3471;49.678;8.388;2023-06-10T00:26:43;21.40;99.90
6865;DHT22;3471;49.678;8.388;2023-06-10T00:29:09;21.40;99.90
6865;DHT22;3471;49.678;8.388;2023-06-10T00:31:36;21.40;99.90
6865;DHT22;3471;49.678;8.388;2023-06-10T00:34:02;21.30;99.90
6865;DHT22;3471;49.678;8.388;2023-06-10T00:36:28;21.30;99.90
6865;DHT22;3471;49.678;8.388;2023-06-10T00:38:54;21.30;99.90
6865;DHT22;3471;49.678;8.388;2023-06-10T00:41:19;21.20;99.90
6865;DHT22;3471;49.678;8.388;2023-06-10T00:43:45;21.20;99.90
6865;DHT22;3471;49.678;8.388;2023-06-10T00:46:14;21.20;99.90
6865;DHT22;3471;49.678;8.388;2023-06-10T00:48:42;21.20;99.90
6865;DHT22;3471;49.678;8.388;2023-06-10T00:51:08;21.20;99.90
6865;DHT22;3471;49.678;8.388;2023-06-10T00:53:39;21.20;99.90
6865;DHT22;3471;49.678;8.388;2023-06-10T00:56:06;21.20;99.90
6865;DHT22;3471;49.678;8.388;2023-06-10T00:58:31;21.20;99.90
6865;DHT22;3471;49.678;8.388;2023-06-10T01:00:57;21.20;99.90
6865;DHT22;3471;49.678;8.388;2023-06-10T01:03:23;21.20;99.90
6865;DHT22;3471;49.678;8.388;2023-06-10T01:06:14;21.20;99.90
6865;DHT22;3471;49.678;8.388;2023-06-10T01:11:22;21.10;99.90
6865;DHT22;3471;49.678;8.388;2023-06-10T01:13:50;21.10;99.90
6865;DHT22;3471;49.678;8.388;2023-06-10T01:16:18;21.10;99.90
6865;DHT22;3471;49.678;8.388;2023-06-10T01:18:44;21.00;99.90
6865;DHT22;3471;49.678;8.388;2023-06-10T01:21:19;21.00;99.90
6865;DHT22;3471;49.678;8.388;2023-06-10T01:23:44;21.00;99.90
6865;DHT22;3471;49.678;8.388;2023-06-10T01:26:11;20.90;99.90
6865;DHT22;3471;49.678;8.388;2023-06-10T01:28:49;20.80;99.90
6865;DHT22;3471;49.678;8.388;2023-06-10T01:34:14;20.70;99.90
6865;DHT22;3471;49.678;8.388;2023-06-10T01:36:41;20.70;99.90
6865;DHT22;3471;49.678;8.388;2023-06-10T01:39:10;20.60;99.90
6865;DHT22;3471;49.678;8.388;2023-06-10T01:41:36;20.60;99.90
6865;DHT22;3471;49.678;8.388;2023-06-10T01:44:03;20.50;99.90
6865;DHT22;3471;49.678;8.388;2023-06-10T01:46:28;20.40;99.90
6865;DHT22;3471;49.678;8.388;2023-06-10T01:48:55;20.40;99.90
6865;DHT22;3471;49.678;8.388;2023-06-10T01:51:21;20.30;99.90
6865;DHT22;3471;49.678;8.388;2023-06-10T01:53:47;20.30;99.90
6865;DHT22;3471;49.678;8.388;2023-06-10T01:56:12;20.30;99.90
6865;DHT22;3471;49.678;8.388;2023-06-10T01:58:43;20.20;99.90
6865;DHT22;3471;49.678;8.388;2023-06-10T02:01:09;20.20;99.90
6865;DHT22;3471;49.678;8.388;2023-06-10T02:03:35;20.20;99.90
6865;DHT22;3471;49.678;8.388;2023-06-10T02:06:01;20.10;99.90
6865;DHT22;3471;49.678;8.388;2023-06-10T02:08:26;20.10;99.90
6865;DHT22;3471;49.678;8.388;2023-06-10T02:10:53;20.10;99.90
6865;DHT22;3471;49.678;8.388;2023-06-10T02:13:18;20.00;99.90
6865;DHT22;3471;49.678;8.388;2023-06-10T02:15:44;20.00;99.90
6865;DHT22;3471;49.678;8.388;2023-06-10T02:18:10;20.00;99.90
6865;DHT22;3471;49.678;8.388;2023-06-10T02:20:37;19.90;99.90
6865;DHT22;3471;49.678;8.388;2023-06-10T02:23:03;19.90;99.90
6865;DHT22;3471;49.678;8.388;2023-06-10T02:25:29;19.90;99.90
6865;DHT22;3471;49.678;8.388;2023-06-10T02:27:54;19.80;99.90
6865;DHT22;3471;49.678;8.388;2023-06-10T02:30:20;19.80;99.90
6865;DHT22;3471;49.678;8.388;2023-06-10T02:32:45;19.80;99.90
6865;DHT22;3471;49.678;8.388;2023-06-10T02:35:14;19.80;99.90
6865;DHT22;3471;49.678;8.388;2023-06-10T02:37:39;19.70;99.90
6865;DHT22;3471;49.678;8.388;2023-06-10T02:40:06;19.70;99.90
6865;DHT22;3471;49.678;8.388;2023-06-10T02:42:32;19.60;99.90
6865;DHT22;3471;49.678;8.388;2023-06-10T02:44:57;19.60;99.90
6865;DHT22;3471;49.678;8.388;2023-06-10T02:47:23;19.60;99.90
6865;DHT22;3471;49.678;8.388;2023-06-10T02:49:48;19.60;99.90
6865;DHT22;3471;49.678;8.388;2023-06-10T02:52:14;19.60;99.90
6865;DHT22;3471;49.678;8.388;2023-06-10T02:54:40;19.50;99.90
6865;DHT22;3471;49.678;8.388;2023-06-10T02:57:05;19.50;99.90
6865;DHT22;3471;49.678;8.388;2023-06-10T02:59:31;19.50;99.90
6865;DHT22;3471;49.678;8.388;2023-06-10T03:01:57;19.50;99.90
6865;DHT22;3471;49.678;8.388;2023-06-10T03:04:24;19.50;99.90
6865;DHT22;3471;49.678;8.388;2023-06-10T03:06:50;19.40;99.90
6865;DHT22;3471;49.678;8.388;2023-06-10T03:09:16;19.40;99.90
6865;DHT22;3471;49.678;8.388;2023-06-10T03:11:42;19.40;99.90
6865;DHT22;3471;49.678;8.388;2023-06-10T03:14:07;19.30;99.90
6865;DHT22;3471;49.678;8.388;2023-06-10T03:16:33;19.40;99.90
6865;DHT22;3471;49.678;8.388;2023-06-10T03:18:58;19.30;99.90
6865;DHT22;3471;49.678;8.388;2023-06-10T03:21:24;19.40;99.90
6865;DHT22;3471;49.678;8.388;2023-06-10T03:23:50;19.40;99.90
6865;DHT22;3471;49.678;8.388;2023-06-10T03:26:15;19.40;99.90
6865;DHT22;3471;49.678;8.388;2023-06-10T03:28:42;19.40;99.90
6865;DHT22;3471;49.678;8.388;2023-06-10T03:31:07;19.30;99.90
6865;DHT22;3471;49.678;8.388;2023-06-10T03:33:33;19.30;99.90
6865;DHT22;3471;49.678;8.388;2023-06-10T03:35:59;19.30;99.90
6865;DHT22;3471;49.678;8.388;2023-06-10T03:38:24;19.30;99.90
6865;DHT22;3471;49.678;8.388;2023-06-10T03:40:50;19.30;99.90
6865;DHT22;3471;49.678;8.388;2023-06-10T03:43:15;19.30;99.90
6865;DHT22;3471;49.678;8.388;2023-06-10T03:45:41;19.30;99.90
6865;DHT22;3471;49.678;8.388;2023-06-10T03:48:07;19.20;99.90
6865;DHT22;3471;49.678;8.388;2023-06-10T03:50:34;19.20;99.90
6865;DHT22;3471;49.678;8.388;2023-06-10T03:52:59;19.20;99.90
6865;DHT22;3471;49.678;8.388;2023-06-10T03:55:25;19.20;99.90
6865;DHT22;3471;49.678;8.388;2023-06-10T03:57:51;19.20;99.90
6865;DHT22;3471;49.678;8.388;2023-06-10T04:00:17;19.20;99.90
6865;DHT22;3471;49.678;8.388;2023-06-10T04:02:43;19.20;99.90
6865;DHT22;3471;49.678;8.388;2023-06-10T04:05:17;19.20;99.90
6865;DHT22;3471;49.678;8.388;2023-06-10T04:07:44;19.20;99.90
6865;DHT22;3471;49.678;8.388;2023-06-10T04:10:10;19.20;99.90
6865;DHT22;3471;49.678;8.388;2023-06-10T04:12:37;19.20;99.90
6865;DHT22;3471;49.678;8.388;2023-06-10T04:15:03;19.20;99.90
6865;DHT22;3471;49.678;8.388;2023-06-10T04:17:29;19.20;99.90
6865;DHT22;3471;49.678;8.388;2023-06-10T04:19:55;19.30;99.90
6865;DHT22;3471;49.678;8.388;2023-06-10T04:22:21;19.30;99.90
6865;DHT22;3471;49.678;8.388;2023-06-10T04:24:48;19.30;99.90
6865;DHT22;3471;49.678;8.388;2023-06-10T04:27:13;19.30;99.90
6865;DHT22;3471;49.678;8.388;2023-06-10T04:29:39;19.30;99.90
6865;DHT22;3471;49.678;8.388;2023-06-10T04:32:04;19.40;99.90
6865;DHT22;3471;49.678;8.388;2023-06-10T04:34:33;19.40;99.90
6865;DHT22;3471;49.678;8.388;2023-06-10T04:36:58;19.40;99.90
6865;DHT22;3471;49.678;8.388;2023-06-10T04:39:24;19.50;99.90
6865;DHT22;3471;49.678;8.388;2023-06-10T04:41:50;19.60;99.90
6865;DHT22;3471;49.678;8.388;2023-06-10T04:44:15;19.60;99.90
6865;DHT22;3471;49.678;8.388;2023-06-10T04:46:41;19.70;99.90
6865;DHT22;3471;49.678;8.388;2023-06-10T04:49:06;19.80;99.90
6865;DHT22;3471;49.678;8.388;2023-06-10T04:51:32;19.80;99.90
6865;DHT22;3471;49.678;8.388;2023-06-10T04:53:58;19.90;99.90
6865;DHT22;3471;49.678;8.388;2023-06-10T04:56:24;20.00;99.90
6865;DHT22;3471;49.678;8.388;2023-06-10T04:58:50;20.10;99.90
6865;DHT22;3471;49.678;8.388;2023-06-10T05:01:16;20.20;99.90
6865;DHT22;3471;49.678;8.388;2023-06-10T05:03:41;20.30;99.90
6865;DHT22;3471;49.678;8.388;2023-06-10T05:06:07;20.40;99.90
6865;DHT22;3471;49.678;8.388;2023-06-10T05:08:33;20.50;99.90
6865;DHT22;3471;49.678;8.388;2023-06-10T05:10:59;20.50;99.90
6865;DHT22;3471;49.678;8.388;2023-06-10T05:13:24;20.60;99.90
6865;DHT22;3471;49.678;8.388;2023-06-10T05:15:50;20.70;99.90
6865;DHT22;3471;49.678;8.388;2023-06-10T05:18:15;20.70;99.90
6865;DHT22;3471;49.678;8.388;2023-06-10T05:20:41;20.80;99.90
6865;DHT22;3471;49.678;8.388;2023-06-10T05:23:07;20.90;99.90
6865;DHT22;3471;49.678;8.388;2023-06-10T05:25:33;21.00;99.90
6865;DHT22;3471;49.678;8.388;2023-06-10T05:27:58;21.10;99.90
6865;DHT22;3471;49.678;8.388;2023-06-10T05:30:24;21.20;99.90
6865;DHT22;3471;49.678;8.388;2023-06-10T05:32:51;21.40;99.90
6865;DHT22;3471;49.678;8.388;2023-06-10T05:35:18;21.50;99.90
6865;DHT22;3471;49.678;8.388;2023-06-10T05:37:44;21.60;99.90
6865;DHT22;3471;49.678;8.388;2023-06-10T05:40:10;21.70;99.90
6865;DHT22;3471;49.678;8.388;2023-06-10T05:42:36;21.80;99.90
6865;DHT22;3471;49.678;8.388;2023-06-10T05:45:02;21.90;99.90
6865;DHT22;3471;49.678;8.388;2023-06-10T05:47:28;21.90;99.90
6865;DHT22;3471;49.678;8.388;2023-06-10T05:49:53;22.00;99.90
6865;DHT22;3471;49.678;8.388;2023-06-10T05:52:19;22.00;99.90
6865;DHT22;3471;49.678;8.388;2023-06-10T05:54:45;22.10;99.90
6865;DHT22;3471;49.678;8.388;2023-06-10T05:57:10;22.20;99.90
6865;DHT22;3471;49.678;8.388;2023-06-10T05:59:36;22.30;99.90
6865;DHT22;3471;49.678;8.388;2023-06-10T06:02:02;22.40;99.90
6865;DHT22;3471;49.678;8.388;2023-06-10T06:04:27;22.50;99.90
6865;DHT22;3471;49.678;8.388;2023-06-10T06:06:53;22.70;99.90
6865;DHT22;3471;49.678;8.388;2023-06-10T06:09:18;22.80;99.90
6865;DHT22;3471;49.678;8.388;2023-06-10T06:11:44;22.80;99.90
6865;DHT22;3471;49.678;8.388;2023-06-10T06:14:09;22.90;99.90
6865;DHT22;3471;49.678;8.388;2023-06-10T06:16:35;23.00;99.90
6865;DHT22;3471;49.678;8.388;2023-06-10T06:19:00;23.10;99.90
6865;DHT22;3471;49.678;8.388;2023-06-10T06:21:26;23.10;99.90
6865;DHT22;3471;49.678;8.388;2023-06-10T06:23:52;23.20;99.90
6865;DHT22;3471;49.678;8.388;2023-06-10T06:26:17;23.20;99.90
6865;DHT22;3471;49.678;8.388;2023-06-10T06:28:43;23.40;99.90
6865;DHT22;3471;49.678;8.388;2023-06-10T06:31:08;23.40;99.90
6865;DHT22;3471;49.678;8.388;2023-06-10T06:33:34;23.40;99.90
6865;DHT22;3471;49.678;8.388;2023-06-10T06:35:59;23.40;99.90
6865;DHT22;3471;49.678;8.388;2023-06-10T06:38:28;23.40;99.90
6865;DHT22;3471;49.678;8.388;2023-06-10T06:40:53;23.50;99.90
6865;DHT22;3471;49.678;8.388;2023-06-10T06:43:19;23.50;99.90
6865;DHT22;3471;49.678;8.388;2023-06-10T06:45:45;23.60;99.90
6865;DHT22;3471;49.678;8.388;2023-06-10T06:48:11;23.70;99.90
6865;DHT22;3471;49.678;8.388;2023-06-10T06:50:37;23.70;99.90
6865;DHT22;3471;49.678;8.388;2023-06-10T06:53:03;23.80;99.90
6865;DHT22;3471;49.678;8.388;2023-06-10T06:55:29;23.80;99.90
6865;DHT22;3471;49.678;8.388;2023-06-10T06:57:55;23.90;99.90
6865;DHT22;3471;49.678;8.388;2023-06-10T07:00:21;24.00;99.90
6865;DHT22;3471;49.678;8.388;2023-06-10T07:02:49;24.00;99.90
6865;DHT22;3471;49.678;8.388;2023-06-10T07:05:14;24.10;99.90
6865;DHT22;3471;49.678;8.388;2023-06-10T07:07:40;24.20;99.90
6865;DHT22;3471;49.678;8.388;2023-06-10T07:10:06;24.40;99.90
6865;DHT22;3471;49.678;8.388;2023-06-10T07:12:32;24.40;99.90
6865;DHT22;3471;49.678;8.388;2023-06-10T07:14:57;24.60;99.90
6865;DHT22;3471;49.678;8.388;2023-06-10T07:17:23;24.70;99.90
6865;DHT22;3471;49.678;8.388;2023-06-10T07:19:48;24.80;99.90
6865;DHT22;3471;49.678;8.388;2023-06-10T07:22:14;24.90;99.90
6865;DHT22;3471;49.678;8.388;2023-06-10T07:24:40;25.00;99.90
6865;DHT22;3471;49.678;8.388;2023-06-10T07:27:06;25.20;99.90
6865;DHT22;3471;49.678;8.388;2023-06-10T07:29:32;25.30;99.90
6865;DHT22;3471;49.678;8.388;2023-06-10T07:31:58;25.40;99.90
6865;DHT22;3471;49.678;8.388;2023-06-10T07:34:23;25.50;99.90
6865;DHT22;3471;49.678;8.388;2023-06-10T07:36:49;25.60;99.90
6865;DHT22;3471;49.678;8.388;2023-06-10T07:39:14;25.70;99.90
6865;DHT22;3471;49.678;8.388;2023-06-10T07:41:40;25.80;99.90
6865;DHT22;3471;49.678;8.388;2023-06-10T07:44:06;25.80;99.90
6865;DHT22;3471;49.678;8.388;2023-06-10T07:46:31;25.90;99.90
6865;DHT22;3471;49.678;8.388;2023-06-10T07:48:57;25.90;99.90
6865;DHT22;3471;49.678;8.388;2023-06-10T07:51:22;26.00;99.90
6865;DHT22;3471;49.678;8.388;2023-06-10T07:53:48;26.10;99.90
6865;DHT22;3471;49.678;8.388;2023-06-10T07:56:13;26.10;99.90
6865;DHT22;3471;49.678;8.388;2023-06-10T07:58:39;26.20;99.90
6865;DHT22;3471;49.678;8.388;2023-06-10T08:01:05;26.20;99.90
6865;DHT22;3471;49.678;8.388;2023-06-10T08:03:30;26.30;99.90
6865;DHT22;3471;49.678;8.388;2023-06-10T08:05:56;26.40;99.90
6865;DHT22;3471;49.678;8.388;2023-06-10T08:08:21;26.50;99.90
6865;DHT22;3471;49.678;8.388;2023-06-10T08:10:47;26.60;99.90
6865;DHT22;3471;49.678;8.388;2023-06-10T08:13:14;26.80;99.90
6865;DHT22;3471;49.678;8.388;2023-06-10T08:15:40;26.80;99.90
6865;DHT22;3471;49.678;8.388;2023-06-10T08:18:05;26.80;99.90
6865;DHT22;3471;49.678;8.388;2023-06-10T08:20:31;27.00;99.90
6865;DHT22;3471;49.678;8.388;2023-06-10T08:22:57;27.00;99.90
6865;DHT22;3471;49.678;8.388;2023-06-10T08:25:23;27.20;99.90
6865;DHT22;3471;49.678;8.388;2023-06-10T08:27:48;27.20;99.90
6865;DHT22;3471;49.678;8.388;2023-06-10T08:30:16;27.20;99.90
6865;DHT22;3471;49.678;8.388;2023-06-10T08:32:41;27.30;99.90
6865;DHT22;3471;49.678;8.388;2023-06-10T08:35:07;27.40;99.90
6865;DHT22;3471;49.678;8.388;2023-06-10T08:37:33;27.50;99.90
6865;DHT22;3471;49.678;8.388;2023-06-10T08:39:59;27.60;99.90
6865;DHT22;3471;49.678;8.388;2023-06-10T08:45:02;27.80;99.90
6865;DHT22;3471;49.678;8.388;2023-06-10T08:47:30;27.90;99.90
6865;DHT22;3471;49.678;8.388;2023-06-10T08:50:03;28.00;99.90
6865;DHT22;3471;49.678;8.388;2023-06-10T08:52:35;28.20;99.90
6865;DHT22;3471;49.678;8.388;2023-06-10T08:55:11;28.30;99.90
6865;DHT22;3471;49.678;8.388;2023-06-10T08:57:37;28.30;99.90
6865;DHT22;3471;49.678;8.388;2023-06-10T09:00:05;28.40;99.90
6865;DHT22;3471;49.678;8.388;2023-06-10T09:02:31;28.40;99.90
6865;DHT22;3471;49.678;8.388;2023-06-10T09:05:00;28.50;99.90
6865;DHT22;3471;49.678;8.388;2023-06-10T09:07:28;28.70;99.90
6865;DHT22;3471;49.678;8.388;2023-06-10T09:09:56;28.80;99.30
6865;DHT22;3471;49.678;8.388;2023-06-10T09:12:23;28.90;99.40
6865;DHT22;3471;49.678;8.388;2023-06-10T09:14:48;29.00;99.80
6865;DHT22;3471;49.678;8.388;2023-06-10T09:17:14;29.10;99.90
6865;DHT22;3471;49.678;8.388;2023-06-10T09:19:40;29.20;99.60
6865;DHT22;3471;49.678;8.388;2023-06-10T09:22:06;29.30;98.10
6865;DHT22;3471;49.678;8.388;2023-06-10T09:24:32;29.30;98.40
6865;DHT22;3471;49.678;8.388;2023-06-10T09:27:08;29.30;98.50
6865;DHT22;3471;49.678;8.388;2023-06-10T09:29:53;29.40;99.10
6865;DHT22;3471;49.678;8.388;2023-06-10T09:32:20;29.50;98.80
6865;DHT22;3471;49.678;8.388;2023-06-10T09:34:46;29.60;97.80
6865;DHT22;3471;49.678;8.388;2023-06-10T09:37:12;29.70;98.00
6865;DHT22;3471;49.678;8.388;2023-06-10T09:39:40;29.80;97.80
6865;DHT22;3471;49.678;8.388;2023-06-10T09:42:18;29.90;99.20
6865;DHT22;3471;49.678;8.388;2023-06-10T09:44:51;29.90;97.40
6865;DHT22;3471;49.678;8.388;2023-06-10T09:47:23;30.00;97.90
6865;DHT22;3471;49.678;8.388;2023-06-10T09:49:49;30.20;98.50
6865;DHT22;3471;49.678;8.388;2023-06-10T09:52:25;30.30;97.40
6865;DHT22;3471;49.678;8.388;2023-06-10T09:54:58;30.50;97.80
6865;DHT22;3471;49.678;8.388;2023-06-10T09:57:24;30.60;97.10
6865;DHT22;3471;49.678;8.388;2023-06-10T09:59:53;30.70;96.60
6865;DHT22;3471;49.678;8.388;2023-06-10T10:02:19;30.80;97.20
6865;DHT22;3471;49.678;8.388;2023-06-10T10:04:45;30.90;97.10
6865;DHT22;3471;49.678;8.388;2023-06-10T10:07:11;30.80;97.00
6865;DHT22;3471;49.678;8.388;2023-06-10T10:09:38;31.00;97.60
6865;DHT22;3471;49.678;8.388;2023-06-10T10:12:15;31.00;97.20
6865;DHT22;3471;49.678;8.388;2023-06-10T10:14:46;31.00;96.80
6865;DHT22;3471;49.678;8.388;2023-06-10T10:17:15;31.00;97.10
6865;DHT22;3471;49.678;8.388;2023-06-10T10:19:46;31.10;96.90
6865;DHT22;3471;49.678;8.388;2023-06-10T10:22:24;31.20;98.00
6865;DHT22;3471;49.678;8.388;2023-06-10T10:24:52;31.40;96.80
6865;DHT22;3471;49.678;8.388;2023-06-10T10:27:28;31.50;97.40
6865;DHT22;3471;49.678;8.388;2023-06-10T10:29:58;31.50;96.60
6865;DHT22;3471;49.678;8.388;2023-06-10T10:35:17;31.70;96.80
6865;DHT22;3471;49.678;8.388;2023-06-10T10:37:43;31.70;95.50
6865;DHT22;3471;49.678;8.388;2023-06-10T10:40:10;31.70;95.50
6865;DHT22;3471;49.678;8.388;2023-06-10T10:42:36;31.70;94.40
6865;DHT22;3471;49.678;8.388;2023-06-10T10:45:04;31.80;95.60
6865;DHT22;3471;49.678;8.388;2023-06-10T10:47:31;31.80;94.80
6865;DHT22;3471;49.678;8.388;2023-06-10T10:49:58;31.90;93.20
6865;DHT22;3471;49.678;8.388;2023-06-10T10:52:25;32.00;94.50
6865;DHT22;3471;49.678;8.388;2023-06-10T10:54:53;32.10;94.50
6865;DHT22;3471;49.678;8.388;2023-06-10T10:57:20;32.30;93.30
6865;DHT22;3471;49.678;8.388;2023-06-10T11:02:36;32.50;94.70
6865;DHT22;3471;49.678;8.388;2023-06-10T11:05:04;32.50;94.20
6865;DHT22;3471;49.678;8.388;2023-06-10T11:07:31;32.50;93.90
6865;DHT22;3471;49.678;8.388;2023-06-10T11:15:12;32.70;93.50
6865;DHT22;3471;49.678;8.388;2023-06-10T11:20:50;32.80;91.80
6865;DHT22;3471;49.678;8.388;2023-06-10T11:26:13;33.20;91.30
6865;DHT22;3471;49.678;8.388;2023-06-10T11:28:39;33.30;91.80
6865;DHT22;3471;49.678;8.388;2023-06-10T11:31:05;33.30;91.50
6865;DHT22;3471;49.678;8.388;2023-06-10T11:33:31;33.40;91.80
6865;DHT22;3471;49.678;8.388;2023-06-10T11:35:57;33.60;92.10
6865;DHT22;3471;49.678;8.388;2023-06-10T11:38:26;33.70;91.50
6865;DHT22;3471;49.678;8.388;2023-06-10T11:40:53;33.70;90.90
6865;DHT22;3471;49.678;8.388;2023-06-10T11:43:19;33.80;90.50
6865;DHT22;3471;49.678;8.388;2023-06-10T11:45:45;33.80;90.90
6865;DHT22;3471;49.678;8.388;2023-06-10T11:48:12;34.00;90.40
6865;DHT22;3471;49.678;8.388;2023-06-10T11:50:38;34.00;87.50
6865;DHT22;3471;49.678;8.388;2023-06-10T11:53:04;34.00;87.90
6865;DHT22;3471;49.678;8.388;2023-06-10T11:55:47;33.90;84.50
6865;DHT22;3471;49.678;8.388;2023-06-10T11:58:21;33.80;89.60
6865;DHT22;3471;49.678;8.388;2023-06-10T12:00:51;33.80;89.00
6865;DHT22;3471;49.678;8.388;2023-06-10T12:03:19;33.80;90.80
6865;DHT22;3471;49.678;8.388;2023-06-10T12:06:14;33.60;87.80
6865;DHT22;3471;49.678;8.388;2023-06-10T12:08:43;33.40;87.00
6865;DHT22;3471;49.678;8.388;2023-06-10T12:11:09;33.40;87.20
6865;DHT22;3471;49.678;8.388;2023-06-10T12:13:34;33.30;90.20
6865;DHT22;3471;49.678;8.388;2023-06-10T12:16:09;33.40;90.50
6865;DHT22;3471;49.678;8.388;2023-06-10T12:18:35;33.50;90.20
6865;DHT22;3471;49.678;8.388;2023-06-10T12:21:00;33.60;88.90
6865;DHT22;3471;49.678;8.388;2023-06-10T12:23:26;33.80;88.40
6865;DHT22;3471;49.678;8.388;2023-06-10T12:25:53;34.20;88.10
6865;DHT22;3471;49.678;8.388;2023-06-10T12:28:23;34.40;89.70
6865;DHT22;3471;49.678;8.388;2023-06-10T12:30:48;34.60;86.20
6865;DHT22;3471;49.678;8.388;2023-06-10T12:33:18;34.70;86.00
6865;DHT22;3471;49.678;8.388;2023-06-10T12:35:53;34.60;84.00
6865;DHT22;3471;49.678;8.388;2023-06-10T12:38:23;34.60;84.40
6865;DHT22;3471;49.678;8.388;2023-06-10T12:40:50;34.60;82.90
6865;DHT22;3471;49.678;8.388;2023-06-10T12:43:25;34.60;82.70
6865;DHT22;3471;49.678;8.388;2023-06-10T12:45:51;34.50;80.70
6865;DHT22;3471;49.678;8.388;2023-06-10T12:48:21;34.20;84.50
6865;DHT22;3471;49.678;8.388;2023-06-10T12:50:52;34.10;82.40
6865;DHT22;3471;49.678;8.388;2023-06-10T12:53:18;34.20;84.40
6865;DHT22;3471;49.678;8.388;2023-06-10T12:55:45;34.30;86.70
6865;DHT22;3471;49.678;8.388;2023-06-10T12:58:11;34.70;85.70
6865;DHT22;3471;49.678;8.388;2023-06-10T13:00:37;35.00;82.60
6865;DHT22;3471;49.678;8.388;2023-06-10T13:03:03;34.80;82.30
6865;DHT22;3471;49.678;8.388;2023-06-10T13:05:31;34.60;80.90
6865;DHT22;3471;49.678;8.388;2023-06-10T13:07:57;34.40;80.30
6865;DHT22;3471;49.678;8.388;2023-06-10T13:10:23;34.10;81.90
6865;DHT22;3471;49.678;8.388;2023-06-10T13:12:50;33.80;85.40
6865;DHT22;3471;49.678;8.388;2023-06-10T13:15:16;33.80;87.30
6865;DHT22;3471;49.678;8.388;2023-06-10T13:17:43;33.90;85.70
6865;DHT22;3471;49.678;8.388;2023-06-10T13:20:09;34.10;84.40
6865;DHT22;3471;49.678;8.388;2023-06-10T13:22:35;34.30;83.10
6865;DHT22;3471;49.678;8.388;2023-06-10T13:25:05;34.80;86.90
6865;DHT22;3471;49.678;8.388;2023-06-10T13:27:33;35.30;82.00
6865;DHT22;3471;49.678;8.388;2023-06-10T13:29:58;35.90;82.30
6865;DHT22;3471;49.678;8.388;2023-06-10T13:32:24;36.30;80.20
6865;DHT22;3471;49.678;8.388;2023-06-10T13:34:50;36.60;81.20
6865;DHT22;3471;49.678;8.388;2023-06-10T13:37:16;36.80;77.80
6865;DHT22;3471;49.678;8.388;2023-06-10T13:39:45;36.80;76.10
6865;DHT22;3471;49.678;8.388;2023-06-10T13:42:17;36.70;78.10
6865;DHT22;3471;49.678;8.388;2023-06-10T13:44:42;36.70;81.00
6865;DHT22;3471;49.678;8.388;2023-06-10T13:47:08;36.90;79.50
6865;DHT22;3471;49.678;8.388;2023-06-10T13:49:33;37.10;78.50
6865;DHT22;3471;49.678;8.388;2023-06-10T13:51:59;37.00;75.30
6865;DHT22;3471;49.678;8.388;2023-06-10T13:54:24;36.80;76.40
6865;DHT22;3471;49.678;8.388;2023-06-10T13:56:50;36.40;75.70
6865;DHT22;3471;49.678;8.388;2023-06-10T13:59:15;36.00;78.50
6865;DHT22;3471;49.678;8.388;2023-06-10T14:01:41;35.80;77.90
6865;DHT22;3471;49.678;8.388;2023-06-10T14:04:07;36.00;80.60
6865;DHT22;3471;49.678;8.388;2023-06-10T14:06:33;36.40;75.70
6865;DHT22;3471;49.678;8.388;2023-06-10T14:08:59;36.80;76.80
6865;DHT22;3471;49.678;8.388;2023-06-10T14:11:25;37.20;77.70
6865;DHT22;3471;49.678;8.388;2023-06-10T14:13:51;37.60;73.10
6865;DHT22;3471;49.678;8.388;2023-06-10T14:16:17;37.90;74.30
6865;DHT22;3471;49.678;8.388;2023-06-10T14:18:42;38.30;73.90
6865;DHT22;3471;49.678;8.388;2023-06-10T14:21:08;38.50;74.70
6865;DHT22;3471;49.678;8.388;2023-06-10T14:23:33;38.90;73.00
6865;DHT22;3471;49.678;8.388;2023-06-10T14:25:59;39.20;71.50
6865;DHT22;3471;49.678;8.388;2023-06-10T14:28:25;39.40;72.60
6865;DHT22;3471;49.678;8.388;2023-06-10T14:30:53;39.50;71.80
6865;DHT22;3471;49.678;8.388;2023-06-10T14:33:18;39.30;70.80
6865;DHT22;3471;49.678;8.388;2023-06-10T14:35:44;39.20;72.00
6865;DHT22;3471;49.678;8.388;2023-06-10T14:38:09;39.20;70.60
6865;DHT22;3471;49.678;8.388;2023-06-10T14:40:35;39.00;71.20
6865;DHT22;3471;49.678;8.388;2023-06-10T14:43:01;38.60;71.60
6865;DHT22;3471;49.678;8.388;2023-06-10T14:45:29;38.40;72.80
6865;DHT22;3471;49.678;8.388;2023-06-10T14:47:54;38.30;71.20
6865;DHT22;3471;49.678;8.388;2023-06-10T14:50:20;38.40;73.10
6865;DHT22;3471;49.678;8.388;2023-06-10T14:52:46;38.70;75.60
6865;DHT22;3471;49.678;8.388;2023-06-10T14:55:11;39.00;68.50
6865;DHT22;3471;49.678;8.388;2023-06-10T14:57:37;39.30;72.20
6865;DHT22;3471;49.678;8.388;2023-06-10T15:00:03;39.30;69.70
6865;DHT22;3471;49.678;8.388;2023-06-10T15:02:29;39.30;71.10
6865;DHT22;3471;49.678;8.388;2023-06-10T15:04:54;39.40;72.50
6865;DHT22;3471;49.678;8.388;2023-06-10T15:07:20;39.50;70.20
6865;DHT22;3471;49.678;8.388;2023-06-10T15:09:45;39.50;69.00
6865;DHT22;3471;49.678;8.388;2023-06-10T15:12:11;39.10;66.80
6865;DHT22;3471;49.678;8.388;2023-06-10T15:14:36;38.80;69.20
6865;DHT22;3471;49.678;8.388;2023-06-10T15:17:02;38.60;71.60
6865;DHT22;3471;49.678;8.388;2023-06-10T15:19:28;38.60;73.60
6865;DHT22;3471;49.678;8.388;2023-06-10T15:21:54;38.70;70.30
6865;DHT22;3471;49.678;8.388;2023-06-10T15:24:19;38.90;69.40
6865;DHT22;3471;49.678;8.388;2023-06-10T15:26:45;38.90;69.30
6865;DHT22;3471;49.678;8.388;2023-06-10T15:29:10;39.10;67.10
6865;DHT22;3471;49.678;8.388;2023-06-10T15:31:36;39.00;68.70
6865;DHT22;3471;49.678;8.388;2023-06-10T15:34:02;39.10;70.00
6865;DHT22;3471;49.678;8.388;2023-06-10T15:36:29;39.10;67.40
6865;DHT22;3471;49.678;8.388;2023-06-10T15:39:03;39.00;68.80
6865;DHT22;3471;49.678;8.388;2023-06-10T15:41:29;39.00;69.50
6865;DHT22;3471;49.678;8.388;2023-06-10T15:43:54;39.00;68.00
6865;DHT22;3471;49.678;8.388;2023-06-10T15:46:20;38.90;69.90
6865;DHT22;3471;49.678;8.388;2023-06-10T15:48:46;38.60;70.60
6865;DHT22;3471;49.678;8.388;2023-06-10T15:51:11;38.50;68.80
6865;DHT22;3471;49.678;8.388;2023-06-10T15:53:37;38.40;70.30
6865;DHT22;3471;49.678;8.388;2023-06-10T15:56:03;38.30;66.40
6865;DHT22;3471;49.678;8.388;2023-06-10T15:58:29;38.20;69.30
6865;DHT22;3471;49.678;8.388;2023-06-10T16:00:54;38.00;67.00
6865;DHT22;3471;49.678;8.388;2023-06-10T16:03:20;37.80;69.70
6865;DHT22;3471;49.678;8.388;2023-06-10T16:05:45;37.70;68.80
6865;DHT22;3471;49.678;8.388;2023-06-10T16:08:11;37.50;70.10
6865;DHT22;3471;49.678;8.388;2023-06-10T16:10:36;37.40;75.00
6865;DHT22;3471;49.678;8.388;2023-06-10T16:13:02;37.30;71.80
6865;DHT22;3471;49.678;8.388;2023-06-10T16:15:28;37.20;68.90
6865;DHT22;3471;49.678;8.388;2023-06-10T16:17:53;37.10;68.80
6865;DHT22;3471;49.678;8.388;2023-06-10T16:20:20;36.90;70.70
6865;DHT22;3471;49.678;8.388;2023-06-10T16:22:46;36.70;69.70
6865;DHT22;3471;49.678;8.388;2023-06-10T16:25:11;36.40;70.10